Time;durP1;ratioP1;P1;durP2;ratioP2;P2;SDS_P1;SDS_P2;PMS_P1;PMS_P2;Temp;Humidity;BMP_temperature;BMP_pressure;BME280_temperature;BME280_humidity;BME280_pressure;Samples;Min_cycle;Max_cycle;Signal;HPM_P1;HPM_P2
2023/10/19 00:01:11;;;;;;;0.22;0.10;;;;;;;10.29;100.00;100115.03;5092026;28;20028;-67
2023/10/19 00:03:37;;;;;;;0.20;0.10;;;;;;;10.31;100.00;100109.69;5091802;28;20028;-66
2023/10/19 00:06:03;;;;;;;0.22;0.10;;;;;;;10.28;100.00;100107.38;5089460;28;20024;-67
2023/10/19 00:08:36;;;;;;;0.25;0.10;;;;;;;10.30;100.00;100103.66;5086265;28;20391;-66
2023/10/19 00:11:08;;;;;;;2.42;0.20;;;;;;;10.38;100.00;100100.31;5083389;28;20028;-66
2023/10/19 00:13:40;;;;;;;0.52;0.20;;;;;;;10.45;100.00;100100.47;5074676;28;20440;-66
2023/10/19 00:16:16;;;;;;;0.32;0.10;;;;;;;10.44;100.00;100096.25;5087502;28;20080;-66
2023/10/19 00:18:42;;;;;;;0.20;0.10;;;;;;;10.40;100.00;100094.94;5087361;28;20043;-67
2023/10/19 00:21:23;;;;;;;0.20;0.00;;;;;;;10.29;100.00;100091.59;5086824;28;20162;-66
2023/10/19 00:23:55;;;;;;;0.28;0.05;;;;;;;10.28;100.00;100084.75;5089295;28;20038;-66
2023/10/19 00:26:20;;;;;;;0.22;0.05;;;;;;;10.32;100.00;100084.47;5080840;28;20035;-66
2023/10/19 00:28:50;;;;;;;1.00;0.20;;;;;;;10.43;100.00;100086.78;5080049;28;20020;-66
2023/10/19 00:31:20;;;;;;;1.10;0.20;;;;;;;10.51;100.00;100079.03;5089031;28;20500;-66
2023/10/19 00:33:46;;;;;;;0.77;0.30;;;;;;;10.61;100.00;100085.78;5093167;28;20039;-66
2023/10/19 00:36:14;;;;;;;0.82;0.30;;;;;;;10.67;100.00;100073.94;5093213;28;20130;-66
2023/10/19 00:39:13;;;;;;;0.73;0.45;;;;;;;10.70;100.00;100065.00;5089323;28;20050;-66
2023/10/19 00:41:30;;;;;;;1.00;0.20;;;;;;;10.69;100.00;100066.78;5082434;28;20051;-66
2023/10/19 00:44:07;;;;;;;0.65;0.20;;;;;;;10.63;100.00;100059.56;5086392;28;20123;-67
2023/10/19 00:46:37;;;;;;;0.10;0.00;;;;;;;10.55;100.00;100054.31;5088622;28;20067;-67
2023/10/19 00:49:05;;;;;;;0.20;0.00;;;;;;;10.47;100.00;100049.06;5082171;28;20047;-67
2023/10/19 00:54:10;;;;;;;0.08;0.00;;;;;;;10.23;100.00;100029.72;5088682;28;20032;-66
2023/10/19 00:56:37;;;;;;;0.35;0.00;;;;;;;10.14;100.00;100027.19;5082317;28;20113;-67
2023/10/19 00:59:17;;;;;;;0.10;0.00;;;;;;;10.08;100.00;100015.59;5088061;28;20028;-67
2023/10/19 01:01:45;;;;;;;0.20;0.10;;;;;;;10.10;100.00;99998.03;5086683;28;20077;-66
2023/10/19 01:04:14;;;;;;;0.15;0.00;;;;;;;10.12;100.00;100000.47;5083669;28;20028;-67
2023/10/19 01:06:59;;;;;;;0.20;0.10;;;;;;;10.17;100.00;100004.25;5089991;28;20460;-66
2023/10/19 01:09:27;;;;;;;0.10;0.00;;;;;;;10.26;100.00;99997.34;5086171;28;20171;-66
2023/10/19 01:11:53;;;;;;;0.00;0.00;;;;;;;10.33;100.00;99998.38;5083342;28;20616;-66
2023/10/19 01:14:21;;;;;;;2.03;0.00;;;;;;;10.41;100.00;99987.16;5085907;28;20062;-66
2023/10/19 01:16:48;;;;;;;0.10;0.00;;;;;;;10.48;100.00;99996.00;5080805;28;20036;-65
2023/10/19 01:19:18;;;;;;;0.20;0.03;;;;;;;10.51;100.00;99993.09;5089508;28;20024;-65
2023/10/19 01:21:46;;;;;;;0.20;0.10;;;;;;;10.55;100.00;99997.00;5083353;28;20043;-65
2023/10/19 01:24:16;;;;;;;0.10;0.00;;;;;;;10.51;100.00;99988.69;5080764;28;20028;-66
2023/10/19 01:26:42;;;;;;;0.20;0.00;;;;;;;10.47;100.00;99989.16;5084888;28;20036;-66
2023/10/19 01:29:14;;;;;;;0.57;0.00;;;;;;;10.48;100.00;99982.97;5089764;28;20035;-66
2023/10/19 01:31:55;;;;;;;0.00;0.00;;;;;;;10.47;100.00;99978.72;5087523;28;20134;-66
2023/10/19 01:34:21;;;;;;;0.10;0.00;;;;;;;10.45;100.00;99973.69;5081856;28;20044;-65
2023/10/19 01:36:50;;;;;;;0.22;0.00;;;;;;;10.44;100.00;99968.63;5079960;28;20032;-65
2023/10/19 01:39:18;;;;;;;0.00;0.00;;;;;;;10.41;100.00;99963.72;5086776;28;20042;-66
2023/10/19 01:41:44;;;;;;;0.43;0.00;;;;;;;10.40;100.00;99977.75;5081907;28;20481;-66
2023/10/19 01:44:13;;;;;;;0.15;0.00;;;;;;;10.41;100.00;99979.34;5084012;28;20162;-66
2023/10/19 01:46:39;;;;;;;0.00;0.00;;;;;;;10.41;100.00;99963.72;5088408;28;20483;-65
2023/10/19 01:49:05;;;;;;;0.10;0.00;;;;;;;10.42;100.00;99967.97;5084415;28;20193;-67
2023/10/19 01:51:32;;;;;;;0.25;0.22;;;;;;;10.42;100.00;99954.94;5069090;28;20067;-66
2023/10/19 01:54:00;;;;;;;0.10;0.00;;;;;;;10.44;100.00;99953.00;5090192;28;20402;-67
2023/10/19 01:56:27;;;;;;;0.08;0.00;;;;;;;10.46;100.00;99951.06;5084076;28;20499;-67
2023/10/19 01:58:54;;;;;;;0.52;0.03;;;;;;;10.45;100.00;99949.41;5089418;28;20039;-67
2023/10/19 02:01:20;;;;;;;0.00;0.00;;;;;;;10.45;100.00;99955.44;5082480;28;20047;-67
2023/10/19 02:03:55;;;;;;;0.10;0.00;;;;;;;10.43;100.00;99948.75;5084903;28;20040;-66
2023/10/19 02:06:21;;;;;;;0.03;0.00;;;;;;;10.42;100.00;99944.53;5061695;28;20139;-67
2023/10/19 02:08:50;;;;;;;0.03;0.00;;;;;;;10.42;100.00;99949.72;5084807;28;20115;-66
2023/10/19 02:11:19;;;;;;;0.43;0.00;;;;;;;10.40;100.00;99947.28;5088672;28;20040;-67
2023/10/19 02:13:49;;;;;;;0.00;0.00;;;;;;;10.36;100.00;99937.38;5085510;28;20028;-67
2023/10/19 02:16:16;;;;;;;0.00;0.00;;;;;;;10.34;100.00;99928.88;5086522;28;20032;-67
2023/10/19 02:18:42;;;;;;;0.00;0.00;;;;;;;10.33;100.00;99933.28;5085665;28;20132;-67
2023/10/19 02:21:11;;;;;;;0.10;0.00;;;;;;;10.33;100.00;99927.25;5070923;28;20032;-67
2023/10/19 02:23:38;;;;;;;0.20;0.00;;;;;;;10.30;100.00;99920.56;5084924;28;20423;-67
2023/10/19 02:26:04;;;;;;;0.00;0.00;;;;;;;10.32;100.00;99913.41;5088709;28;20032;-67
2023/10/19 02:28:31;;;;;;;0.20;0.00;;;;;;;10.34;100.00;99913.28;5087542;28;20064;-67
2023/10/19 02:31:10;;;;;;;0.10;0.00;;;;;;;10.39;100.00;99913.63;5088700;28;20118;-67
2023/10/19 02:33:36;;;;;;;0.00;0.00;;;;;;;10.39;100.00;99898.00;5079811;28;20032;-67
2023/10/19 02:36:03;;;;;;;0.10;0.00;;;;;;;10.40;100.00;99899.63;5087733;28;20047;-67
2023/10/19 02:38:29;;;;;;;0.08;0.00;;;;;;;10.39;100.00;99904.00;5074782;28;20036;-67
2023/10/19 02:40:55;;;;;;;0.17;0.00;;;;;;;10.37;100.00;99912.97;5085501;28;20024;-67
2023/10/19 02:43:23;;;;;;;4.63;0.03;;;;;;;10.34;100.00;99915.88;5084967;28;20051;-68
2023/10/19 02:45:48;;;;;;;0.03;0.00;;;;;;;10.29;100.00;99909.34;5082824;28;20032;-68
2023/10/19 02:48:13;;;;;;;0.10;0.00;;;;;;;10.27;100.00;99905.25;5080973;28;20047;-67
2023/10/19 02:50:39;;;;;;;0.00;0.00;;;;;;;10.23;100.00;99893.53;5085748;28;20036;-67
2023/10/19 02:53:05;;;;;;;0.10;0.00;;;;;;;10.19;100.00;99893.03;5075436;28;20054;-67
2023/10/19 02:55:31;;;;;;;0.00;0.00;;;;;;;10.20;100.00;99893.84;5085948;28;20470;-68
2023/10/19 02:57:58;;;;;;;0.10;0.00;;;;;;;10.21;100.00;99888.47;5082112;28;20033;-67
2023/10/19 03:00:33;;;;;;;0.00;0.00;;;;;;;10.26;100.00;99877.59;5078091;28;20073;-66
2023/10/19 03:03:00;;;;;;;0.00;0.00;;;;;;;10.30;100.00;99878.91;5087576;28;20039;-66
2023/10/19 03:05:26;;;;;;;0.22;0.00;;;;;;;10.31;100.00;99877.94;5086815;28;20541;-67
2023/10/19 03:07:52;;;;;;;0.00;0.00;;;;;;;10.33;100.00;99877.78;5090649;28;20036;-67
2023/10/19 03:11:03;;;;;;;0.00;0.00;;;;;;;10.34;100.00;99879.41;5084895;28;20534;-67
2023/10/19 03:13:04;;;;;;;0.00;0.00;;;;;;;10.34;100.00;99882.84;5069474;28;20527;-67
2023/10/19 03:15:33;;;;;;;0.10;0.00;;;;;;;10.33;100.00;99873.38;5092896;28;20385;-67
2023/10/19 03:18:00;;;;;;;0.13;0.00;;;;;;;10.34;100.00;99869.00;5087987;28;20050;-67
2023/10/19 03:20:27;;;;;;;0.00;0.00;;;;;;;10.30;100.00;99864.09;5085203;28;20032;-67
2023/10/19 03:22:52;;;;;;;0.00;0.00;;;;;;;10.28;100.00;99860.84;5095582;28;20960;-67
2023/10/19 03:28:11;;;;;;;0.05;0.00;;;;;;;10.26;100.00;99848.94;5084205;28;20043;-66
2023/10/19 03:30:38;;;;;;;3.38;0.00;;;;;;;10.28;100.00;99839.19;5084022;28;20038;-67
2023/10/19 03:33:05;;;;;;;0.43;0.00;;;;;;;10.33;100.00;99836.94;5090793;28;20032;-67
2023/10/19 03:35:31;;;;;;;0.00;0.00;;;;;;;10.37;100.00;99838.25;5088274;28;20024;-67
2023/10/19 03:38:00;;;;;;;0.05;0.00;;;;;;;10.40;100.00;99835.31;5084170;28;20028;-67
2023/10/19 03:40:31;;;;;;;0.00;0.00;;;;;;;10.45;100.00;99834.84;5082290;28;20377;-67
2023/10/19 03:42:56;;;;;;;0.00;0.00;;;;;;;10.47;100.00;99831.09;5081486;28;20075;-67
2023/10/19 03:45:24;;;;;;;0.10;0.00;;;;;;;10.50;100.00;99824.75;5079419;28;20049;-67
2023/10/19 03:47:53;;;;;;;0.00;0.00;;;;;;;10.50;100.00;99820.38;5082884;28;20415;-67
2023/10/19 03:50:22;;;;;;;0.00;0.00;;;;;;;10.56;100.00;99818.91;5089444;28;20027;-68
2023/10/19 03:52:47;;;;;;;0.20;0.00;;;;;;;10.58;100.00;99825.59;5086229;28;20617;-68
2023/10/19 03:55:18;;;;;;;0.28;0.05;;;;;;;10.58;100.00;99809.97;5086625;28;20127;-68
2023/10/19 03:57:50;;;;;;;1.45;0.00;;;;;;;10.54;100.00;99813.03;5082659;28;20485;-68
2023/10/19 04:00:16;;;;;;;0.17;0.00;;;;;;;10.50;100.00;99814.34;5081624;28;20040;-68
2023/10/19 04:02:42;;;;;;;0.40;0.00;;;;;;;10.46;100.00;99810.41;5087913;28;20131;-67
2023/10/19 04:05:14;;;;;;;0.10;0.00;;;;;;;10.43;100.00;99800.31;5090212;28;20150;-68
2023/10/19 04:07:41;;;;;;;0.30;0.00;;;;;;;10.39;100.00;99799.03;5084843;28;20036;-69
2023/10/19 04:12:37;;;;;;;0.30;0.00;;;;;;;10.43;100.00;99785.50;5075160;28;20040;-68
2023/10/19 04:15:12;;;;;;;0.03;0.00;;;;;;;10.48;100.00;99778.03;5089760;28;20034;-68
2023/10/19 04:17:42;;;;;;;0.20;0.00;;;;;;;10.51;100.00;99776.91;5087773;28;20040;-68
2023/10/19 04:22:46;;;;;;;0.00;0.00;;;;;;;10.56;100.00;99759.00;5082281;28;20083;-68
2023/10/19 04:25:25;;;;;;;0.10;0.00;;;;;;;10.57;100.00;99755.41;5090708;28;20097;-68
2023/10/19 04:27:51;;;;;;;0.17;0.00;;;;;;;10.58;100.00;99752.66;5085137;28;20463;-68
2023/10/19 04:30:26;;;;;;;0.63;0.10;;;;;;;10.62;100.00;99755.75;5086192;28;20403;-68
2023/10/19 04:32:52;;;;;;;0.10;0.00;;;;;;;10.63;100.00;99754.78;5092229;28;20039;-68
2023/10/19 04:35:22;;;;;;;0.00;0.00;;;;;;;10.62;100.00;99745.34;5090261;28;20092;-68
2023/10/19 04:37:52;;;;;;;0.00;0.00;;;;;;;10.59;100.00;99743.88;5082904;28;20035;-68
2023/10/19 04:40:22;;;;;;;0.10;0.00;;;;;;;10.58;100.00;99729.22;5076698;28;20452;-68
2023/10/19 04:42:50;;;;;;;0.08;0.00;;;;;;;10.61;100.00;99728.06;5080752;28;20067;-67
2023/10/19 04:45:16;;;;;;;0.35;0.00;;;;;;;10.61;100.00;99723.69;5078971;28;20035;-67
2023/10/19 04:47:41;;;;;;;0.40;0.00;;;;;;;10.64;100.00;99723.34;5090695;28;20075;-66
2023/10/19 04:50:10;;;;;;;0.40;0.10;;;;;;;10.64;100.00;99722.53;5088482;28;20510;-66
2023/10/19 04:52:36;;;;;;;0.22;0.00;;;;;;;10.64;100.00;99723.34;5084248;28;20059;-66
2023/10/19 04:55:02;;;;;;;0.00;0.00;;;;;;;10.65;100.00;99721.56;5091103;28;20115;-67
2023/10/19 04:57:27;;;;;;;0.98;0.00;;;;;;;10.67;100.00;99719.63;5061586;28;20058;-67
2023/10/19 04:59:53;;;;;;;0.20;0.10;;;;;;;10.72;100.00;99726.94;5087914;28;20432;-67
2023/10/19 05:02:18;;;;;;;0.28;0.00;;;;;;;10.76;100.00;99717.81;5079317;28;20040;-67
2023/10/19 05:04:45;;;;;;;0.70;0.00;;;;;;;10.81;100.00;99720.75;5062225;28;20023;-68
2023/10/19 05:07:16;;;;;;;0.03;0.00;;;;;;;10.83;100.00;99724.81;5090039;28;20037;-67
2023/10/19 05:09:42;;;;;;;0.13;0.00;;;;;;;10.83;100.00;99724.81;5086530;28;20043;-66
2023/10/19 05:12:11;;;;;;;0.20;0.00;;;;;;;10.82;100.00;99718.00;5085635;28;20063;-66
2023/10/19 05:14:39;;;;;;;0.40;0.10;;;;;;;10.80;100.00;99717.34;5086698;28;20040;-65
2023/10/19 05:17:05;;;;;;;0.25;0.00;;;;;;;10.82;100.00;99720.59;5081811;28;20078;-65
2023/10/19 05:19:34;;;;;;;0.30;0.10;;;;;;;10.84;100.00;99713.44;5086698;28;20030;-65
2023/10/19 05:22:01;;;;;;;0.70;0.00;;;;;;;10.83;100.00;99713.59;5090682;28;20023;-67
2023/10/19 05:24:27;;;;;;;0.22;0.00;;;;;;;10.77;100.00;99702.03;5090622;28;20047;-66
2023/10/19 05:26:53;;;;;;;3.22;0.20;;;;;;;10.76;100.00;99702.19;5079986;28;20040;-66
2023/10/19 05:29:19;;;;;;;0.47;0.10;;;;;;;10.73;100.00;99698.13;5091184;28;20480;-67
2023/10/19 05:31:45;;;;;;;0.03;0.00;;;;;;;10.75;100.00;99700.56;5084934;28;20498;-67
2023/10/19 05:34:10;;;;;;;0.30;0.00;;;;;;;10.76;100.00;99704.78;5090482;28;20218;-67
2023/10/19 05:36:36;;;;;;;0.00;0.00;;;;;;;10.80;100.00;99699.09;5082522;28;20032;-67
2023/10/19 05:39:03;;;;;;;0.80;0.10;;;;;;;10.91;100.00;99701.34;5080447;28;20032;-68
2023/10/19 05:41:31;;;;;;;0.13;0.00;;;;;;;11.01;100.00;99701.16;5085154;28;20020;-67
2023/10/19 05:43:56;;;;;;;0.85;0.15;;;;;;;11.10;100.00;99709.78;5082816;28;20024;-67
2023/10/19 05:46:24;;;;;;;0.13;0.10;;;;;;;11.09;100.00;99703.75;5077977;28;20032;-67
2023/10/19 05:48:50;;;;;;;0.77;0.05;;;;;;;11.05;100.00;99706.88;5086333;28;20076;-66
2023/10/19 05:51:17;;;;;;;0.10;0.00;;;;;;;11.01;100.00;99714.19;5089183;28;20031;-67
2023/10/19 05:53:44;;;;;;;1.02;0.10;;;;;;;11.05;100.00;99714.69;5080821;28;20040;-67
2023/10/19 05:56:10;;;;;;;0.30;0.10;;;;;;;11.07;100.00;99710.94;5081672;28;20382;-66
2023/10/19 05:58:36;;;;;;;0.10;0.00;;;;;;;11.07;100.00;99717.94;5078784;28;20131;-67
2023/10/19 06:01:01;;;;;;;0.20;0.10;;;;;;;11.06;100.00;99708.50;5084920;28;20523;-68
2023/10/19 06:03:26;;;;;;;0.47;0.00;;;;;;;11.04;100.00;99702.63;5084862;28;20040;-67
2023/10/19 06:05:56;;;;;;;0.30;0.00;;;;;;;11.04;100.00;99710.44;5089104;28;20451;-67
2023/10/19 06:08:22;;;;;;;0.20;0.00;;;;;;;10.97;100.00;99712.91;5073575;28;20033;-67
2023/10/19 06:10:54;;;;;;;0.10;0.00;;;;;;;10.96;100.00;99708.66;5079848;28;20447;-67
2023/10/19 06:13:21;;;;;;;0.55;0.00;;;;;;;10.98;100.00;99704.09;5087068;28;20050;-67
2023/10/19 06:15:48;;;;;;;0.55;0.00;;;;;;;11.00;100.00;99696.94;5082571;28;20039;-66
2023/10/19 06:18:14;;;;;;;0.08;0.00;;;;;;;11.04;100.00;99702.63;5080668;28;20042;-67
2023/10/19 06:20:45;;;;;;;0.45;0.10;;;;;;;11.05;100.00;99699.84;5066296;28;20032;-67
2023/10/19 06:23:11;;;;;;;0.25;0.00;;;;;;;11.08;100.00;99701.31;5078487;28;20032;-67
2023/10/19 06:25:38;;;;;;;0.10;0.00;;;;;;;11.12;100.00;99694.78;5084217;28;20467;-66
2023/10/19 06:28:04;;;;;;;0.03;0.00;;;;;;;11.18;100.00;99688.91;5086751;28;20024;-67
2023/10/19 06:30:30;;;;;;;0.20;0.03;;;;;;;11.21;100.00;99696.41;5086620;28;20025;-67
2023/10/19 06:33:00;;;;;;;0.20;0.00;;;;;;;11.26;100.00;99688.91;5090260;28;20498;-68
2023/10/19 06:35:26;;;;;;;0.20;0.00;;;;;;;11.28;100.00;99685.16;5088762;28;20062;-68
2023/10/19 06:37:54;;;;;;;0.40;0.05;;;;;;;11.29;100.00;99684.16;5090528;28;20077;-67
2023/10/19 06:40:21;;;;;;;0.30;0.00;;;;;;;11.29;100.00;99673.75;5084030;28;20028;-67
2023/10/19 06:42:48;;;;;;;0.88;0.10;;;;;;;11.30;100.00;99690.19;5082539;28;20493;-68
2023/10/19 06:45:18;;;;;;;0.10;0.00;;;;;;;11.28;100.00;99694.75;5085723;28;20109;-68
2023/10/19 06:47:45;;;;;;;0.30;0.00;;;;;;;11.26;100.00;99692.31;5087266;28;20047;-68
2023/10/19 06:50:13;;;;;;;0.10;0.00;;;;;;;11.23;100.00;99695.25;5085644;28;20074;-68
2023/10/19 06:52:39;;;;;;;0.50;0.00;;;;;;;11.21;100.00;99680.75;5085456;28;20032;-68
2023/10/19 06:55:07;;;;;;;0.08;0.00;;;;;;;11.14;100.00;99685.03;5092940;28;20507;-68
2023/10/19 06:57:33;;;;;;;0.20;0.00;;;;;;;11.12;100.00;99693.00;5092018;28;20044;-68
2023/10/19 06:59:59;;;;;;;0.10;0.00;;;;;;;11.14;100.00;99690.22;5092886;28;20081;-68
2023/10/19 07:02:26;;;;;;;0.35;0.00;;;;;;;11.14;100.00;99687.63;5085675;28;20024;-68
2023/10/19 07:04:52;;;;;;;0.30;0.00;;;;;;;11.15;100.00;99681.44;5093320;28;20082;-68
2023/10/19 07:07:18;;;;;;;0.65;0.10;;;;;;;11.15;100.00;99686.66;5084072;28;20500;-69
2023/10/19 07:09:43;;;;;;;0.30;0.00;;;;;;;11.16;100.00;99683.06;5082057;28;20480;-68
2023/10/19 07:12:08;;;;;;;0.10;0.00;;;;;;;11.19;100.00;99685.34;5087324;28;20043;-68
2023/10/19 07:14:34;;;;;;;1.48;0.20;;;;;;;11.22;100.00;99682.41;5088680;28;20031;-67
2023/10/19 07:17:00;;;;;;;0.22;0.00;;;;;;;11.21;100.00;99683.38;5085236;28;20028;-68
2023/10/19 07:19:25;;;;;;;1.05;0.03;;;;;;;11.21;100.00;99673.75;5083408;28;20024;-68
2023/10/19 07:21:57;;;;;;;2.03;0.22;;;;;;;11.24;100.00;99675.22;5090481;28;20044;-67
2023/10/19 07:24:23;;;;;;;0.10;0.00;;;;;;;11.28;100.00;99664.28;5085705;28;20501;-67
2023/10/19 07:26:53;;;;;;;0.28;0.00;;;;;;;11.29;100.00;99667.72;5081565;28;20039;-66
2023/10/19 07:29:20;;;;;;;0.25;0.10;;;;;;;11.30;100.00;99661.50;5083608;28;20032;-67
2023/10/19 07:31:45;;;;;;;0.88;0.10;;;;;;;11.33;100.00;99655.97;5084204;28;20024;-68
2023/10/19 07:34:15;;;;;;;0.17;0.00;;;;;;;11.35;100.00;99661.78;5078684;28;20035;-67
2023/10/19 07:36:42;;;;;;;0.20;0.05;;;;;;;11.37;100.00;99646.78;5088377;28;20036;-67
2023/10/19 07:39:13;;;;;;;1.02;0.00;;;;;;;11.39;100.00;99652.66;5092239;28;20035;-68
2023/10/19 07:41:40;;;;;;;2.58;0.52;;;;;;;11.48;100.00;99645.59;5088506;28;20081;-68
2023/10/19 07:44:05;;;;;;;0.10;0.10;;;;;;;11.61;100.00;99651.09;5084601;28;20500;-67
2023/10/19 07:46:31;;;;;;;0.30;0.10;;;;;;;11.73;100.00;99659.34;5083628;28;20032;-67
2023/10/19 07:48:59;;;;;;;0.68;0.10;;;;;;;11.73;100.00;99667.19;5082414;28;20062;-67
2023/10/19 07:51:25;;;;;;;0.40;0.00;;;;;;;11.68;100.00;99661.66;5086835;28;20122;-68
2023/10/19 07:53:51;;;;;;;0.28;0.00;;;;;;;11.64;100.00;99667.22;5086879;28;20589;-68
2023/10/19 07:56:17;;;;;;;0.10;0.00;;;;;;;11.61;100.00;99659.72;5091831;28;20467;-68
2023/10/19 07:58:42;;;;;;;0.73;0.10;;;;;;;11.62;100.00;99652.72;5087228;28;20039;-68
2023/10/19 08:01:08;;;;;;;0.10;0.00;;;;;;;11.62;100.00;99653.53;5084421;28;20055;-68
2023/10/19 08:03:35;;;;;;;0.10;0.00;;;;;;;11.63;100.00;99657.78;5088640;28;20066;-68
2023/10/19 08:06:00;;;;;;;0.35;0.10;;;;;;;11.65;100.00;99655.00;5088995;28;20039;-70
2023/10/19 08:08:33;;;;;;;0.75;0.10;;;;;;;11.62;100.00;99653.53;5091083;28;20035;-71
2023/10/19 08:10:58;;;;;;;1.10;0.00;;;;;;;11.62;100.00;99648.31;5087794;28;20028;-70
2023/10/19 08:13:26;;;;;;;0.30;0.00;;;;;;;11.62;100.00;99645.72;5088907;28;20130;-70
2023/10/19 08:15:51;;;;;;;0.77;0.10;;;;;;;11.62;100.00;99643.09;5087035;28;20035;-71
2023/10/19 08:18:17;;;;;;;0.68;0.10;;;;;;;11.64;100.00;99633.31;5088342;28;20032;-70
2023/10/19 08:20:45;;;;;;;0.57;0.00;;;;;;;11.69;100.00;99637.19;5091034;28;20107;-71
2023/10/19 08:23:13;;;;;;;2.70;0.10;;;;;;;11.71;100.00;99633.44;5083879;28;20119;-70
2023/10/19 08:25:39;;;;;;;0.20;0.10;;;;;;;11.76;100.00;99631.13;5084036;28;20354;-71
2023/10/19 08:28:06;;;;;;;0.57;0.10;;;;;;;11.78;100.00;99620.53;5090010;28;20593;-71
2023/10/19 08:30:34;;;;;;;0.20;0.00;;;;;;;11.80;100.00;99623.78;5087099;28;20116;-71
2023/10/19 08:32:59;;;;;;;0.05;0.00;;;;;;;11.81;100.00;99615.78;5089581;28;20169;-70
2023/10/19 08:35:26;;;;;;;0.25;0.00;;;;;;;11.79;100.00;99601.28;5097097;28;20076;-71
2023/10/19 08:37:52;;;;;;;0.35;0.00;;;;;;;11.83;100.00;99618.19;5098557;28;20543;-71
2023/10/19 08:40:19;;;;;;;0.30;0.10;;;;;;;11.85;100.00;99611.00;5095346;28;20032;-71
2023/10/19 08:42:46;;;;;;;2.03;0.10;;;;;;;11.87;100.00;99612.47;5084570;28;20035;-70
2023/10/19 08:45:13;;;;;;;0.98;0.10;;;;;;;11.89;100.00;99607.06;5090631;28;20081;-71
2023/10/19 08:47:47;;;;;;;0.32;0.10;;;;;;;11.94;100.00;99604.75;5094213;28;20039;-71
2023/10/19 08:50:14;;;;;;;0.30;0.10;;;;;;;12.00;100.00;99603.25;5087074;28;20476;-71
2023/10/19 08:52:44;;;;;;;0.98;0.10;;;;;;;12.08;100.00;99604.00;5086262;28;20119;-71
2023/10/19 08:55:12;;;;;;;1.38;0.10;;;;;;;12.15;100.00;99594.50;5089599;28;20149;-71
2023/10/19 08:57:39;;;;;;;0.60;0.10;;;;;;;12.09;100.00;99600.41;5090944;28;20028;-72
2023/10/19 09:00:06;;;;;;;0.25;0.20;;;;;;;12.03;100.00;99589.84;5090538;28;20499;-72
2023/10/19 09:02:33;;;;;;;0.10;0.00;;;;;;;11.93;100.00;99592.69;5085937;28;20556;-72
2023/10/19 09:04:59;;;;;;;0.25;0.00;;;;;;;11.95;100.00;99615.03;5094623;28;20048;-71
2023/10/19 09:07:30;;;;;;;0.75;0.10;;;;;;;11.98;100.00;99615.66;5089944;28;20032;-71
2023/10/19 09:09:57;;;;;;;3.15;0.10;;;;;;;12.03;100.00;99613.34;5090722;28;20081;-71
2023/10/19 09:12:23;;;;;;;0.77;0.03;;;;;;;12.09;100.00;99610.84;5088280;28;20028;-71
2023/10/19 09:14:49;;;;;;;0.40;0.10;;;;;;;12.12;100.00;99607.09;5103807;28;20392;-71
2023/10/19 09:17:17;;;;;;;0.40;0.10;;;;;;;12.18;100.00;99615.03;5089660;28;20038;-71
2023/10/19 09:19:48;;;;;;;0.75;0.10;;;;;;;12.28;100.00;99613.00;5088202;28;20326;-71
2023/10/19 09:22:22;;;;;;;0.73;0.20;;;;;;;12.52;100.00;99598.06;5092028;28;20539;-72
2023/10/19 09:24:53;;;;;;;3.35;0.10;;;;;;;12.59;100.00;99604.22;5088141;28;20077;-71
2023/10/19 09:27:22;;;;;;;0.50;0.10;;;;;;;12.57;100.00;99595.75;5084922;28;20093;-71
2023/10/19 09:29:48;;;;;;;0.52;0.10;;;;;;;12.53;100.00;99605.75;5098095;28;20032;-71
2023/10/19 09:32:14;;;;;;;0.13;0.10;;;;;;;12.44;100.00;99601.56;5083434;28;20059;-71
2023/10/19 09:34:43;;;;;;;0.30;0.10;;;;;;;12.39;100.00;99598.69;5096264;28;20059;-72
2023/10/19 09:37:10;;;;;;;0.20;0.03;;;;;;;12.40;100.00;99605.53;5085777;28;20368;-70
2023/10/19 09:39:35;;;;;;;0.50;0.10;;;;;;;12.43;100.00;99594.72;5088403;28;20043;-71
2023/10/19 09:42:10;;;;;;;0.30;0.10;;;;;;;12.44;100.00;99596.34;5099879;28;20036;-72
2023/10/19 09:44:48;;;;;;;0.23;0.00;;;;;;;12.34;100.00;99595.78;5087362;28;20104;-71
2023/10/19 09:47:41;;;;;;;1.05;0.10;;;;;;;12.26;100.00;99588.03;5084142;28;20070;-71
2023/10/19 09:50:07;;;;;;;0.40;0.10;;;;;;;12.24;100.00;99580.38;5087403;28;20059;-71
2023/10/19 09:52:34;;;;;;;0.30;0.00;;;;;;;12.26;100.00;99578.41;5100544;28;20105;-71
2023/10/19 09:55:08;;;;;;;0.20;0.10;;;;;;;12.29;100.00;99593.69;5097387;28;20027;-71
2023/10/19 09:57:44;;;;;;;0.17;0.08;;;;;;;12.36;100.00;99590.38;5095674;28;20077;-71
2023/10/19 10:00:13;;;;;;;0.32;0.10;;;;;;;12.39;100.00;99575.16;5068839;28;20030;-72
2023/10/19 10:02:42;;;;;;;0.40;0.15;;;;;;;12.42;100.00;99566.16;5086246;28;20126;-71
2023/10/19 10:05:44;;;;;;;0.57;0.10;;;;;;;12.41;100.00;99575.81;5096672;28;20562;-70
2023/10/19 10:08:19;;;;;;;0.40;0.10;;;;;;;12.52;100.00;99572.75;5088853;28;20040;-71
2023/10/19 10:10:49;;;;;;;0.68;0.15;;;;;;;12.69;100.00;99547.28;5087192;28;20078;-71
2023/10/19 10:13:23;;;;;;;1.63;0.10;;;;;;;12.83;100.00;99549.06;5090041;28;20086;-73
2023/10/19 10:15:49;;;;;;;0.68;0.22;;;;;;;12.86;100.00;99559.16;5095428;28;20029;-71
2023/10/19 10:18:15;;;;;;;0.70;0.30;;;;;;;12.88;100.00;99551.13;5095070;28;20039;-70
2023/10/19 10:20:41;;;;;;;0.88;0.30;;;;;;;12.99;100.00;99537.59;5095841;28;20028;-71
2023/10/19 10:23:32;;;;;;;0.70;0.20;;;;;;;13.04;100.00;99534.44;5093144;28;20389;-70
2023/10/19 10:25:58;;;;;;;0.68;0.28;;;;;;;13.05;100.00;99530.84;5081857;28;20040;-71
2023/10/19 10:28:24;;;;;;;0.35;0.10;;;;;;;12.97;100.00;99523.91;5079761;28;20024;-71
2023/10/19 10:31:22;;;;;;;0.90;0.20;;;;;;;12.71;100.00;99513.13;5088426;28;20024;-71
2023/10/19 10:33:49;;;;;;;1.27;0.10;;;;;;;12.64;100.00;99510.41;5027247;28;20070;-71
2023/10/19 10:36:19;;;;;;;1.95;0.10;;;;;;;12.59;100.00;99510.16;5087425;28;20028;-71
2023/10/19 10:38:49;;;;;;;1.23;0.10;;;;;;;12.52;100.00;99504.03;5090141;28;20388;-70
2023/10/19 10:41:25;;;;;;;0.38;0.10;;;;;;;12.54;100.00;99491.59;5086510;28;20375;-70
2023/10/19 10:43:52;;;;;;;1.55;0.10;;;;;;;12.61;100.00;99495.09;5093887;28;20060;-70
2023/10/19 10:46:22;;;;;;;0.70;0.10;;;;;;;12.65;100.00;99493.75;5090200;28;20071;-70
2023/10/19 10:48:48;;;;;;;1.55;0.10;;;;;;;12.69;100.00;99495.00;5089830;28;20499;-70
2023/10/19 10:51:28;;;;;;;0.10;0.00;;;;;;;12.66;100.00;99500.59;5080440;28;20036;-70
2023/10/19 10:53:54;;;;;;;1.55;0.05;;;;;;;12.69;100.00;99484.56;5085517;28;20101;-70
2023/10/19 10:56:24;;;;;;;0.30;0.10;;;;;;;12.71;100.00;99492.22;5088058;28;20024;-70
2023/10/19 10:58:52;;;;;;;0.30;0.10;;;;;;;12.66;100.00;99490.16;5093450;28;20471;-70
2023/10/19 11:01:33;;;;;;;3.63;0.10;;;;;;;12.57;100.00;99480.78;5089304;28;20036;-71
2023/10/19 11:04:07;;;;;;;2.30;0.10;;;;;;;12.50;100.00;99477.25;5085793;28;20050;-71
2023/10/19 11:06:32;;;;;;;1.73;0.10;;;;;;;12.51;100.00;99466.63;5086493;28;20036;-72
2023/10/19 11:08:58;;;;;;;1.17;0.00;;;;;;;12.43;100.00;99469.31;5088479;28;20474;-71
2023/10/19 11:11:23;;;;;;;0.57;0.10;;;;;;;12.38;100.00;99465.63;5087660;28;20079;-72
2023/10/19 11:13:48;;;;;;;0.28;0.00;;;;;;;12.41;100.00;99460.88;5093006;28;20028;-72
2023/10/19 11:16:22;;;;;;;0.40;0.00;;;;;;;12.47;100.00;99459.34;5087284;28;20028;-72
2023/10/19 11:18:50;;;;;;;0.40;0.00;;;;;;;12.53;100.00;99462.03;5079034;28;20023;-72
2023/10/19 11:21:18;;;;;;;0.38;0.00;;;;;;;12.58;100.00;99458.88;5089523;28;20130;-72
2023/10/19 11:23:43;;;;;;;0.20;0.00;;;;;;;12.63;100.00;99465.19;5089563;28;20039;-72
2023/10/19 11:26:10;;;;;;;2.38;0.10;;;;;;;12.65;100.00;99461.59;5084931;28;20051;-71
2023/10/19 11:28:44;;;;;;;0.65;0.52;;;;;;;12.70;100.00;99454.00;5092005;28;20035;-71
2023/10/19 11:31:19;;;;;;;0.93;0.00;;;;;;;12.72;100.00;99458.06;5090561;28;20047;-71
2023/10/19 11:33:48;;;;;;;1.08;0.05;;;;;;;12.79;100.00;99435.41;5087890;28;20024;-71
2023/10/19 11:36:14;;;;;;;4.78;0.10;;;;;;;12.84;100.00;99446.13;5092668;28;20047;-71
2023/10/19 11:38:45;;;;;;;0.30;0.10;;;;;;;12.91;100.00;99448.81;5092631;28;20042;-72
2023/10/19 11:41:14;;;;;;;0.70;0.10;;;;;;;12.91;100.00;99441.78;5088974;28;20515;-71